createdAt,value
2022-10-25T00:02:22.822Z,11.90
2022-10-25T00:04:51.082Z,14.10
2022-10-25T00:07:18.743Z,11.70
2022-10-25T00:09:46.468Z,13.00
2022-10-25T00:12:14.170Z,12.50
2022-10-25T00:14:42.351Z,12.00
2022-10-25T00:17:11.026Z,13.00
2022-10-25T00:19:38.688Z,12.30
2022-10-25T00:22:06.570Z,14.60
2022-10-25T00:24:34.829Z,9.50
2022-10-25T00:27:02.483Z,10.10
2022-10-25T00:29:30.170Z,9.80
2022-10-25T00:31:57.821Z,10.10
2022-10-25T00:34:25.510Z,9.40
2022-10-25T00:36:53.033Z,11.90
2022-10-25T00:39:20.801Z,10.40
2022-10-25T00:41:48.457Z,11.80
2022-10-25T00:44:34.694Z,11.60
2022-10-25T00:47:21.074Z,10.70
2022-10-25T00:49:53.227Z,12.50
2022-10-25T00:52:21.194Z,10.70
2022-10-25T00:54:50.699Z,11.80
2022-10-25T00:57:33.306Z,10.50
2022-10-25T01:00:01.657Z,9.00
2022-10-25T01:02:32.736Z,11.00
2022-10-25T01:05:01.205Z,9.40
2022-10-25T01:07:28.865Z,10.20
2022-10-25T01:09:57.245Z,11.30
2022-10-25T01:12:25.148Z,11.40
2022-10-25T01:14:53.155Z,13.00
2022-10-25T01:17:32.207Z,10.30
2022-10-25T01:20:29.260Z,12.10
2022-10-25T01:23:02.785Z,10.60
2022-10-25T01:25:49.568Z,10.70
2022-10-25T01:28:38.841Z,12.00
2022-10-25T01:31:09.135Z,12.20
2022-10-25T01:33:39.791Z,9.70
2022-10-25T01:38:49.419Z,12.60
2022-10-25T01:41:26.311Z,10.10
2022-10-25T01:44:03.818Z,11.80
2022-10-25T01:46:44.587Z,12.90
2022-10-25T01:49:18.590Z,9.60
2022-10-25T01:51:46.257Z,10.80
2022-10-25T01:54:18.661Z,13.00
2022-10-25T01:57:06.668Z,11.00
2022-10-25T01:59:43.278Z,10.70
2022-10-25T02:02:31.179Z,10.70
2022-10-25T02:05:10.612Z,11.50
2022-10-25T02:07:40.233Z,11.20
2022-10-25T02:10:14.534Z,11.30
2022-10-25T02:12:54.588Z,8.60
2022-10-25T02:15:32.288Z,12.50
2022-10-25T02:18:01.018Z,10.30
2022-10-25T02:20:30.784Z,9.90
2022-10-25T02:23:00.713Z,12.60
2022-10-25T02:25:29.543Z,12.20
2022-10-25T02:27:58.478Z,13.90
2022-10-25T02:30:27.553Z,9.80
2022-10-25T02:32:55.198Z,10.80
2022-10-25T02:35:22.799Z,9.10
2022-10-25T02:37:50.565Z,11.00
2022-10-25T02:40:18.424Z,11.70
2022-10-25T02:42:46.186Z,11.90
2022-10-25T02:45:14.152Z,12.10
2022-10-25T02:47:41.815Z,12.70
2022-10-25T02:50:10.267Z,11.80
2022-10-25T02:52:38.060Z,12.30
2022-10-25T02:55:05.949Z,10.50
2022-10-25T02:57:37.025Z,10.50
2022-10-25T03:00:06.601Z,13.10
2022-10-25T03:02:34.477Z,12.40
2022-10-25T03:05:02.105Z,11.00
2022-10-25T03:07:30.255Z,10.20
2022-10-25T03:09:58.063Z,12.60
2022-10-25T03:12:25.666Z,11.30
2022-10-25T03:14:53.356Z,11.80
2022-10-25T03:17:20.931Z,11.10
2022-10-25T03:19:48.576Z,12.90
2022-10-25T03:22:16.259Z,10.30
2022-10-25T03:24:44.113Z,12.80
2022-10-25T03:27:11.799Z,13.90
2022-10-25T03:29:39.379Z,10.40
2022-10-25T03:32:08.011Z,13.80
2022-10-25T03:34:35.574Z,10.80
2022-10-25T03:37:03.744Z,11.20
2022-10-25T03:39:31.508Z,10.40
2022-10-25T03:41:59.071Z,34.60
2022-10-25T03:44:27.721Z,27.80
2022-10-25T03:46:55.236Z,25.30
2022-10-25T03:49:23.025Z,17.70
2022-10-25T03:51:52.432Z,16.60
2022-10-25T03:54:25.625Z,17.90
2022-10-25T03:56:57.430Z,15.30
2022-10-25T03:59:25.256Z,10.10
2022-10-25T04:01:53.312Z,10.00
2022-10-25T04:04:21.148Z,9.60
2022-10-25T04:06:48.746Z,14.40
2022-10-25T04:09:16.449Z,13.20
2022-10-25T04:11:44.231Z,15.40
2022-10-25T04:14:11.873Z,15.10
2022-10-25T04:16:39.641Z,12.50
2022-10-25T04:19:07.400Z,14.30
2022-10-25T04:21:35.266Z,15.30
2022-10-25T04:24:04.405Z,12.30
2022-10-25T04:26:35.057Z,12.60
2022-10-25T04:29:03.980Z,10.80
2022-10-25T04:31:32.267Z,11.40
2022-10-25T04:33:59.897Z,10.10
2022-10-25T04:36:30.961Z,11.30
2022-10-25T04:38:59.428Z,12.50
2022-10-25T04:41:27.433Z,11.70
2022-10-25T04:43:55.490Z,14.40
2022-10-25T04:46:23.853Z,12.00
2022-10-25T04:48:51.624Z,11.40
2022-10-25T04:51:19.547Z,13.70
2022-10-25T04:53:47.261Z,12.40
2022-10-25T04:56:15.230Z,10.10
2022-10-25T04:58:42.784Z,11.10
2022-10-25T05:01:12.228Z,12.20
2022-10-25T05:03:40.452Z,17.30
2022-10-25T05:06:12.325Z,12.80
2022-10-25T05:08:40.900Z,10.90
2022-10-25T05:11:09.075Z,9.70
2022-10-25T05:13:37.846Z,12.40
2022-10-25T05:16:06.374Z,15.40
2022-10-25T05:18:34.926Z,12.10
2022-10-25T05:21:06.765Z,13.60
2022-10-25T05:23:34.944Z,13.90
2022-10-25T05:26:21.886Z,11.90
2022-10-25T05:28:50.658Z,14.70
2022-10-25T05:31:20.470Z,12.40
2022-10-25T05:33:52.330Z,10.20
2022-10-25T05:36:19.998Z,12.80
2022-10-25T05:38:47.960Z,11.30
2022-10-25T05:41:16.653Z,13.10
2022-10-25T05:43:44.724Z,9.60
2022-10-25T05:46:14.016Z,13.10
2022-10-25T05:48:47.265Z,12.30
2022-10-25T05:51:33.862Z,14.30
2022-10-25T05:54:07.726Z,12.20
2022-10-25T05:56:36.411Z,13.10
2022-10-25T05:59:11.438Z,10.70
2022-10-25T06:01:40.976Z,11.40
2022-10-25T06:04:09.343Z,13.70
2022-10-25T06:06:37.602Z,12.00
2022-10-25T06:09:06.055Z,12.10
2022-10-25T06:11:34.189Z,12.90
2022-10-25T06:14:02.044Z,11.70
2022-10-25T06:16:30.392Z,15.50
2022-10-25T06:18:57.989Z,12.60
2022-10-25T06:21:27.250Z,11.30
2022-10-25T06:23:55.400Z,12.20
2022-10-25T06:26:24.621Z,9.70
2022-10-25T06:28:53.218Z,13.60
2022-10-25T06:31:21.173Z,11.50
2022-10-25T06:33:49.048Z,13.10
2022-10-25T06:36:18.033Z,9.50
2022-10-25T06:38:46.572Z,14.50
2022-10-25T06:41:16.633Z,12.40
2022-10-25T06:43:44.804Z,14.40
2022-10-25T06:46:15.332Z,10.10
2022-10-25T06:48:43.290Z,12.20
2022-10-25T06:51:11.064Z,13.40
2022-10-25T06:53:40.468Z,11.90
2022-10-25T06:56:14.156Z,13.30
2022-10-25T06:58:43.119Z,11.70
2022-10-25T07:01:13.094Z,9.40
2022-10-25T07:03:41.979Z,10.50
2022-10-25T07:06:11.575Z,11.70
2022-10-25T07:08:40.565Z,11.30
2022-10-25T07:11:13.056Z,13.10
2022-10-25T07:13:40.950Z,9.20
2022-10-25T07:16:10.205Z,9.90
2022-10-25T07:18:38.171Z,8.70
2022-10-25T07:21:07.524Z,10.80
2022-10-25T07:23:41.977Z,10.00
2022-10-25T07:26:11.499Z,11.10
2022-10-25T07:28:40.924Z,11.30
2022-10-25T07:31:11.740Z,10.70
2022-10-25T07:33:39.503Z,8.40
2022-10-25T07:36:11.197Z,8.60
2022-10-25T07:38:40.049Z,8.30
2022-10-25T07:41:08.221Z,10.20
2022-10-25T07:43:36.809Z,11.40
2022-10-25T07:46:04.976Z,9.70
2022-10-25T07:48:33.059Z,11.80
2022-10-25T07:51:04.891Z,8.80
2022-10-25T07:53:33.181Z,9.10
2022-10-25T07:56:01.100Z,11.40
2022-10-25T07:58:29.224Z,11.00
2022-10-25T08:01:01.218Z,9.40
2022-10-25T08:03:29.198Z,7.20
2022-10-25T08:05:58.143Z,7.80
2022-10-25T08:08:26.420Z,9.20
2022-10-25T08:10:54.594Z,8.30
2022-10-25T08:13:22.609Z,8.40
2022-10-25T08:15:51.454Z,10.10
2022-10-25T08:18:21.517Z,9.50
2022-10-25T08:21:01.775Z,9.80
2022-10-25T08:23:31.784Z,7.80
2022-10-25T08:26:00.192Z,8.90
2022-10-25T08:28:28.394Z,6.30
2022-10-25T08:30:56.468Z,6.50
2022-10-25T08:33:24.439Z,6.10
2022-10-25T08:35:52.441Z,5.40
2022-10-25T08:38:20.167Z,6.30
2022-10-25T08:40:50.794Z,6.70
2022-10-25T08:43:18.459Z,6.90
2022-10-25T08:45:57.423Z,7.00
2022-10-25T08:48:30.047Z,8.20
2022-10-25T08:51:03.579Z,7.50
2022-10-25T08:53:34.609Z,12.00
2022-10-25T08:56:17.838Z,6.20
2022-10-25T08:58:49.893Z,7.70
2022-10-25T09:01:22.453Z,4.00
2022-10-25T09:03:50.244Z,8.30
2022-10-25T09:06:41.344Z,6.50
2022-10-25T09:09:25.596Z,7.20
2022-10-25T09:11:59.483Z,6.80
2022-10-25T09:14:44.015Z,8.30
2022-10-25T09:17:19.504Z,5.70
2022-10-25T09:19:47.400Z,6.80
2022-10-25T09:22:18.006Z,7.50
2022-10-25T09:24:45.677Z,8.40
2022-10-25T09:27:24.339Z,5.90
2022-10-25T09:30:11.193Z,6.00
2022-10-25T09:32:41.616Z,6.30
2022-10-25T09:35:14.342Z,8.10
2022-10-25T09:37:45.378Z,8.10
2022-10-25T09:40:16.288Z,7.30
2022-10-25T09:42:50.792Z,8.30
2022-10-25T09:45:22.086Z,7.20
2022-10-25T09:48:16.838Z,6.90
2022-10-25T09:50:48.293Z,5.40
2022-10-25T09:53:21.791Z,5.50
2022-10-25T09:55:56.001Z,6.60
2022-10-25T09:58:28.292Z,5.70
2022-10-25T10:00:57.469Z,6.20
2022-10-25T10:03:30.752Z,6.70
2022-10-25T10:06:15.152Z,6.50
2022-10-25T10:08:47.638Z,6.00
2022-10-25T10:11:17.479Z,6.00
2022-10-25T10:13:47.826Z,5.60
2022-10-25T10:16:21.859Z,7.20
2022-10-25T10:18:49.497Z,5.90
2022-10-25T10:21:21.057Z,6.90
2022-10-25T10:23:51.273Z,7.60
2022-10-25T10:26:18.861Z,6.30
2022-10-25T10:28:48.540Z,8.20
2022-10-25T10:31:16.816Z,5.50
2022-10-25T10:33:51.756Z,5.00
2022-10-25T10:36:24.430Z,6.90
2022-10-25T10:38:52.398Z,6.20
2022-10-25T10:41:28.008Z,9.00
2022-10-25T10:44:10.817Z,4.00
2022-10-25T10:46:44.256Z,6.40
2022-10-25T10:49:12.688Z,4.70
2022-10-25T10:51:44.357Z,5.40
2022-10-25T10:54:27.835Z,9.10
2022-10-25T10:56:57.207Z,7.60
2022-10-25T10:59:34.209Z,6.80
2022-10-25T11:02:17.293Z,4.90
2022-10-25T11:04:49.022Z,7.10
2022-10-25T11:07:28.334Z,8.50
2022-10-25T11:10:32.025Z,5.50
2022-10-25T11:13:10.432Z,6.40
2022-10-25T11:15:48.747Z,6.10
2022-10-25T11:18:17.434Z,5.20
2022-10-25T11:20:54.373Z,8.40
2022-10-25T11:23:30.573Z,7.20
2022-10-25T11:26:02.352Z,6.80
2022-10-25T11:28:30.301Z,5.90
2022-10-25T11:30:58.064Z,5.40
2022-10-25T11:33:26.135Z,3.80
2022-10-25T11:36:02.402Z,6.90
2022-10-25T11:38:30.981Z,3.50
2022-10-25T11:40:58.569Z,6.80
2022-10-25T11:43:34.497Z,6.60
2022-10-25T11:46:10.252Z,6.00
2022-10-25T11:48:48.459Z,4.90
2022-10-25T11:51:16.014Z,7.30
2022-10-25T11:54:00.955Z,5.10
2022-10-25T11:56:39.391Z,5.80
2022-10-25T11:59:16.146Z,6.40
2022-10-25T12:02:02.491Z,5.10
2022-10-25T12:04:38.527Z,5.40
2022-10-25T12:07:25.679Z,5.00
2022-10-25T12:10:12.247Z,5.70
2022-10-25T12:12:46.672Z,6.20
2022-10-25T12:15:19.140Z,4.20
2022-10-25T12:17:47.418Z,4.90
2022-10-25T12:20:22.771Z,6.60
2022-10-25T12:22:52.068Z,3.80
2022-10-25T12:25:20.026Z,5.50
2022-10-25T12:27:54.478Z,4.50
2022-10-25T12:33:02.875Z,6.90
2022-10-25T12:35:34.095Z,7.30
2022-10-25T12:38:22.080Z,6.70
2022-10-25T12:40:51.388Z,8.80
2022-10-25T12:43:28.558Z,3.70
2022-10-25T12:46:09.122Z,7.30
2022-10-25T12:48:50.094Z,3.10
2022-10-25T12:51:18.864Z,4.40
2022-10-25T12:54:10.132Z,4.40
2022-10-25T12:56:56.581Z,5.10
2022-10-25T12:59:43.543Z,4.90
2022-10-25T13:02:50.290Z,6.90
2022-10-25T13:05:43.635Z,6.40
2022-10-25T13:08:12.490Z,3.50
2022-10-25T13:10:42.626Z,10.10
2022-10-25T13:13:14.511Z,6.30
2022-10-25T13:15:45.178Z,6.10
2022-10-25T13:18:31.645Z,8.10
2022-10-25T13:21:00.731Z,5.00
2022-10-25T13:23:44.481Z,5.10
2022-10-25T13:26:14.543Z,6.70
2022-10-25T13:28:44.931Z,5.40
2022-10-25T13:31:31.959Z,5.50
2022-10-25T13:34:13.016Z,6.50
2022-10-25T13:36:54.493Z,7.70
2022-10-25T13:39:26.968Z,7.50
2022-10-25T13:41:56.983Z,8.20
2022-10-25T13:44:25.769Z,4.70
2022-10-25T13:46:54.559Z,5.00
2022-10-25T13:49:22.629Z,7.30
2022-10-25T13:51:53.570Z,17.90
2022-10-25T13:54:22.253Z,14.00
2022-10-25T13:56:54.512Z,15.60
2022-10-25T13:59:34.677Z,21.10
2022-10-25T14:02:21.457Z,10.90
2022-10-25T14:04:49.797Z,9.80
2022-10-25T14:07:47.228Z,27.00
2022-10-25T14:10:24.632Z,26.20
2022-10-25T14:12:57.186Z,13.40
2022-10-25T14:15:30.591Z,9.70
2022-10-25T14:17:58.607Z,8.60
2022-10-25T14:20:32.571Z,16.70
2022-10-25T14:23:04.855Z,9.90
2022-10-25T14:25:35.564Z,21.90
2022-10-25T14:28:27.495Z,19.90
2022-10-25T14:30:55.670Z,6.40
2022-10-25T14:33:31.419Z,9.30
2022-10-25T14:36:05.530Z,22.00
2022-10-25T14:38:36.523Z,10.40
2022-10-25T14:41:12.668Z,20.10
2022-10-25T14:43:42.543Z,9.10
2022-10-25T14:46:10.801Z,7.00
2022-10-25T14:48:40.121Z,6.90
2022-10-25T14:51:28.995Z,8.10
2022-10-25T14:54:00.677Z,5.90
2022-10-25T14:56:50.990Z,9.00
2022-10-25T14:59:22.397Z,6.90
2022-10-25T15:01:56.360Z,7.40
2022-10-25T15:04:41.042Z,9.60
2022-10-25T15:07:20.714Z,5.10
2022-10-25T15:09:49.805Z,4.50
2022-10-25T15:12:19.797Z,5.20
2022-10-25T15:14:48.673Z,9.30
2022-10-25T15:17:20.147Z,7.70
2022-10-25T15:20:06.657Z,7.70
2022-10-25T15:22:37.783Z,7.00
2022-10-25T15:25:24.797Z,8.00
2022-10-25T15:27:54.900Z,5.50
2022-10-25T15:30:41.321Z,5.60
2022-10-25T15:33:11.949Z,4.60
2022-10-25T15:35:50.079Z,8.00
2022-10-25T15:38:18.447Z,7.00
2022-10-25T15:40:47.431Z,6.90
2022-10-25T15:43:15.477Z,7.60
2022-10-25T15:45:44.357Z,7.70
2022-10-25T15:48:19.932Z,6.50
2022-10-25T15:50:52.652Z,6.40
2022-10-25T15:53:21.913Z,6.80
2022-10-25T15:55:50.508Z,7.80
2022-10-25T15:58:18.774Z,5.90
2022-10-25T16:00:48.153Z,6.40
2022-10-25T16:03:19.889Z,6.70
2022-10-25T16:05:48.830Z,7.40
2022-10-25T16:08:17.107Z,6.10
2022-10-25T16:10:45.789Z,5.80
2022-10-25T16:13:15.753Z,6.50
2022-10-25T16:15:43.743Z,66.60
2022-10-25T16:18:12.308Z,101.60
2022-10-25T16:20:40.131Z,134.90
2022-10-25T16:23:07.988Z,101.60
2022-10-25T16:25:35.958Z,71.70
2022-10-25T16:28:03.953Z,159.40
2022-10-25T16:30:37.462Z,169.80
2022-10-25T16:33:07.842Z,127.00
2022-10-25T16:35:35.746Z,134.90
2022-10-25T16:38:04.673Z,137.40
2022-10-25T16:40:33.208Z,123.90
2022-10-25T16:43:01.249Z,154.90
2022-10-25T16:45:31.577Z,282.30
2022-10-25T16:47:59.575Z,260.30
2022-10-25T16:50:29.293Z,246.70
2022-10-25T16:52:59.397Z,136.10
2022-10-25T16:55:30.397Z,54.60
2022-10-25T16:57:59.615Z,38.90
2022-10-25T17:00:29.322Z,36.70
2022-10-25T17:02:59.762Z,32.10
2022-10-25T17:05:33.742Z,30.90
2022-10-25T17:08:02.133Z,28.50
2022-10-25T17:10:31.723Z,29.20
2022-10-25T17:13:05.713Z,26.00
2022-10-25T17:15:33.653Z,21.40
2022-10-25T17:18:01.452Z,22.70
2022-10-25T17:20:30.076Z,20.60
2022-10-25T17:22:58.488Z,22.30
2022-10-25T17:25:26.792Z,19.90
2022-10-25T17:27:54.581Z,25.80
2022-10-25T17:30:22.974Z,34.50
2022-10-25T17:32:51.577Z,31.60
2022-10-25T17:35:27.124Z,23.10
2022-10-25T17:37:57.616Z,13.50
2022-10-25T17:40:25.997Z,12.70
2022-10-25T17:42:53.974Z,13.30
2022-10-25T17:45:21.932Z,12.30
2022-10-25T17:47:50.197Z,13.70
2022-10-25T17:50:20.457Z,15.10
2022-10-25T17:52:50.245Z,15.70
2022-10-25T17:55:22.496Z,14.90
2022-10-25T17:57:52.221Z,16.30
2022-10-25T18:00:20.098Z,15.60
2022-10-25T18:02:50.891Z,19.20
2022-10-25T18:05:21.653Z,19.00
2022-10-25T18:07:54.150Z,18.00
2022-10-25T18:10:22.720Z,18.20
2022-10-25T18:12:51.747Z,20.90
2022-10-25T18:15:19.884Z,18.70
2022-10-25T18:17:48.321Z,17.50
2022-10-25T18:20:17.650Z,19.30
2022-10-25T18:22:45.529Z,18.30
2022-10-25T18:25:14.005Z,13.70
2022-10-25T18:27:41.974Z,13.60
2022-10-25T18:30:12.123Z,17.20
2022-10-25T18:32:42.208Z,12.30
2022-10-25T18:35:11.305Z,11.30
2022-10-25T18:37:39.378Z,9.70
2022-10-25T18:40:08.064Z,9.20
2022-10-25T18:42:37.471Z,11.00
2022-10-25T18:45:06.356Z,13.40
2022-10-25T18:47:34.268Z,10.70
2022-10-25T18:50:02.629Z,9.30
2022-10-25T18:52:30.877Z,10.80
2022-10-25T18:54:59.900Z,11.00
2022-10-25T18:57:29.173Z,12.40
2022-10-25T18:59:57.035Z,13.40
2022-10-25T19:02:25.693Z,10.10
2022-10-25T19:04:53.880Z,11.00
2022-10-25T19:07:21.961Z,12.10
2022-10-25T19:09:50.647Z,14.20
2022-10-25T19:12:21.539Z,14.10
2022-10-25T19:14:49.974Z,13.30
2022-10-25T19:17:19.125Z,13.70
2022-10-25T19:19:47.745Z,13.90
2022-10-25T19:22:17.844Z,16.00
2022-10-25T19:24:46.142Z,13.40
2022-10-25T19:27:14.844Z,23.10
2022-10-25T19:29:43.720Z,19.60
2022-10-25T19:32:13.177Z,17.80
2022-10-25T19:34:43.390Z,15.20
2022-10-25T19:37:12.227Z,14.90
2022-10-25T19:39:41.836Z,18.50
2022-10-25T19:42:12.066Z,18.70
2022-10-25T19:44:40.329Z,22.30
2022-10-25T19:47:08.406Z,19.10
2022-10-25T19:49:36.357Z,17.00
2022-10-25T19:52:04.156Z,16.90
2022-10-25T19:54:32.010Z,16.90
2022-10-25T19:57:01.924Z,19.60
2022-10-25T19:59:30.611Z,17.70
2022-10-25T20:02:01.567Z,25.70
2022-10-25T20:04:29.912Z,21.30
2022-10-25T20:06:59.841Z,23.20
2022-10-25T20:09:28.743Z,19.10
2022-10-25T20:11:58.149Z,20.90
2022-10-25T20:14:28.024Z,14.40
2022-10-25T20:16:56.112Z,18.30
2022-10-25T20:19:24.180Z,19.40
2022-10-25T20:21:52.768Z,14.00
2022-10-25T20:24:20.941Z,16.10
2022-10-25T20:26:49.999Z,16.00
2022-10-25T20:29:21.306Z,12.70
2022-10-25T20:31:52.441Z,12.80
2022-10-25T20:34:21.006Z,14.40
2022-10-25T20:36:51.786Z,16.50
2022-10-25T20:39:20.420Z,16.30
2022-10-25T20:41:48.385Z,13.80
2022-10-25T20:44:16.471Z,12.40
2022-10-25T20:46:44.735Z,12.90
2022-10-25T20:49:13.428Z,11.40
2022-10-25T20:51:41.696Z,10.60
2022-10-25T20:54:10.105Z,8.60
2022-10-25T20:56:39.891Z,12.20
2022-10-25T20:59:11.479Z,12.90
2022-10-25T21:01:41.649Z,8.60
2022-10-25T21:04:10.523Z,10.30
2022-10-25T21:06:38.211Z,8.80
2022-10-25T21:09:08.428Z,9.60
2022-10-25T21:11:36.579Z,11.20
2022-10-25T21:14:04.878Z,10.80
2022-10-25T21:16:32.575Z,10.80
2022-10-25T21:19:02.672Z,9.70
2022-10-25T21:21:30.845Z,10.40
2022-10-25T21:23:59.622Z,10.40
2022-10-25T21:26:27.602Z,10.50
2022-10-25T21:28:56.252Z,13.50
2022-10-25T21:31:24.752Z,44.60
2022-10-25T21:33:57.422Z,34.80
2022-10-25T21:36:28.985Z,20.20
2022-10-25T21:38:57.068Z,16.70
2022-10-25T21:41:28.309Z,13.00
2022-10-25T21:43:57.892Z,14.90
2022-10-25T21:46:27.120Z,15.30
2022-10-25T21:48:55.074Z,15.90
2022-10-25T21:51:24.535Z,18.00
2022-10-25T21:56:31.419Z,13.60
2022-10-25T21:59:00.374Z,16.40
2022-10-25T22:01:29.727Z,14.10
2022-10-25T22:03:58.865Z,15.10
2022-10-25T22:06:27.656Z,15.20
2022-10-25T22:08:56.030Z,12.00
2022-10-25T22:11:25.738Z,11.00
2022-10-25T22:13:54.651Z,12.80
2022-10-25T22:16:22.697Z,12.80
2022-10-25T22:18:53.757Z,14.50
2022-10-25T22:21:22.118Z,15.30
2022-10-25T22:23:49.799Z,14.60
2022-10-25T22:26:18.871Z,11.90
2022-10-25T22:28:47.561Z,16.60
2022-10-25T22:31:16.835Z,20.80
2022-10-25T22:33:45.464Z,24.90
2022-10-25T22:36:14.640Z,31.80
2022-10-25T22:38:43.017Z,30.90
2022-10-25T22:41:11.895Z,27.20
2022-10-25T22:43:40.251Z,25.70
2022-10-25T22:46:10.403Z,25.50
2022-10-25T22:48:39.194Z,24.90
2022-10-25T22:51:06.783Z,27.40
2022-10-25T22:53:35.185Z,28.80
2022-10-25T22:56:04.733Z,28.00
2022-10-25T22:58:32.896Z,26.20
2022-10-25T23:01:05.715Z,19.50
2022-10-25T23:03:33.858Z,20.30
2022-10-25T23:06:02.443Z,21.70
2022-10-25T23:08:30.759Z,28.50
2022-10-25T23:10:59.186Z,21.90
2022-10-25T23:13:26.966Z,20.10
2022-10-25T23:15:54.623Z,18.10
2022-10-25T23:18:22.796Z,19.70
2022-10-25T23:20:55.169Z,20.70
2022-10-25T23:23:23.355Z,18.10
2022-10-25T23:25:52.148Z,18.70
2022-10-25T23:28:20.406Z,19.10
2022-10-25T23:30:48.065Z,20.80
2022-10-25T23:33:17.266Z,19.40
2022-10-25T23:35:45.059Z,19.70
2022-10-25T23:38:13.408Z,18.60
2022-10-25T23:40:45.116Z,19.00
2022-10-25T23:43:12.822Z,19.70
2022-10-25T23:45:42.260Z,15.70
2022-10-25T23:48:10.097Z,17.50
2022-10-25T23:50:38.776Z,15.70
2022-10-25T23:53:06.336Z,15.10
2022-10-25T23:55:34.611Z,14.10
2022-10-25T23:58:02.274Z,12.90
